Nagatomaru — JD3612 — position and weather

sailwx.info

Track history (hours):
 
Tides and Currents Weather Stations Pressure Air Temp Water Temp Dewpoint Dewpoint Depression Visibility Wind Speed Wind Dir Waves Ship Positions

Nagatomaru

Last reported at 2017-Oct-20 08:30 UTC. Time now 2017-Oct-20 08:53 UTC.
Position N 35°17' E 139°41'.

Length 38 m; draft 3 m.

Type: Tug. MMSI: 431005054.

Date/timePositionNaut miles runAvg speedWind from/ knotsBaromVisibWave heightAir tempDewpointWater temp
2017-Oct-20 08:30N 35°17' E 139°41'0 0.0
2017-Oct-20 08:00N 35°17' E 139°41'0 0.0
2017-Oct-20 07:30N 35°17' E 139°41'0 0.0
2017-Oct-20 07:00N 35°17' E 139°41'0 0.0
2017-Oct-20 06:31N 35°17' E 139°41'0 0.0
2017-Oct-20 06:01N 35°17' E 139°41'0 0.0
2017-Oct-20 05:31N 35°17' E 139°41'1 1.9
2017-Oct-20 05:00N 35°18' E 139°41'510.7
2017-Oct-20 04:31N 35°22' E 139°44'510.7
2017-Oct-20 04:00N 35°25' E 139°50'5 9.6
2017-Oct-20 03:30N 35°29' E 139°54'6 6.4
2017-Oct-20 02:36N 35°26' E 139°48'110.8
2017-Oct-20 02:30N 35°25' E 139°47'611.3
2017-Oct-20 02:00N 35°20' E 139°44'610.9
2017-Oct-20 01:30N 35°15' E 139°47'510.2
2017-Oct-20 01:01N 35°10' E 139°46'4 7.8
2017-Oct-20 00:30N 35°13' E 139°44'1 1.9
2017-Oct-20 00:00N 35°13' E 139°43'0 0.0
2017-Oct-19 23:30N 35°13' E 139°43'0 0.0
2017-Oct-19 23:00N 35°13' E 139°43'3 5.4
2017-Oct-19 22:30N 35°12' E 139°46'4 8.6
2017-Oct-19 22:00N 35°16' E 139°46'713.0
2017-Oct-19 21:30N 35°22' E 139°42'2 3.7
2017-Oct-19 21:01N 35°23' E 139°41'0 0.8
2017-Oct-19 20:30N 35°23' E 139°40'3 6.6
2017-Oct-19 20:01N 35°20' E 139°42'3 5.2
2017-Oct-19 19:27N 35°17' E 139°41'0 0.0
2017-Oct-19 19:01N 35°17' E 139°41'0 0.0
2017-Oct-19 18:31N 35°17' E 139°41'0 0.0
2017-Oct-19 18:00N 35°17' E 139°41'0 0.0
2017-Oct-19 17:24N 35°17' E 139°41'0 0.0
2017-Oct-19 16:44N 35°17' E 139°41'0 0.0
2017-Oct-19 16:21N 35°17' E 139°41'0 0.0
2017-Oct-19 15:54N 35°17' E 139°41'0 0.0
2017-Oct-19 15:15N 35°17' E 139°41'0 0.0
2017-Oct-19 14:54N 35°17' E 139°41'0 0.0
2017-Oct-19 14:30N 35°17' E 139°41'0 0.0
2017-Oct-19 14:00N 35°17' E 139°41'0 0.0
2017-Oct-19 13:29N 35°17' E 139°41'0 0.0
2017-Oct-19 13:00N 35°17' E 139°41'0 0.0
2017-Oct-19 12:29N 35°17' E 139°41'0 0.0
2017-Oct-19 11:59N 35°17' E 139°41'0 0.0
2017-Oct-19 11:30N 35°17' E 139°41'0 0.0
2017-Oct-19 10:57N 35°17' E 139°41'0 0.0
2017-Oct-19 10:30N 35°17' E 139°41'0 0.0
2017-Oct-19 10:00N 35°17' E 139°41'0 0.0
2017-Oct-19 09:30N 35°17' E 139°41'0 0.0
2017-Oct-19 09:00N 35°17' E 139°41'0 0.0
2017-Oct-19 08:27N 35°17' E 139°41'0 0.0
2017-Oct-19 08:00N 35°17' E 139°41'0 0.0
2017-Oct-19 07:30N 35°17' E 139°41'0 0.0
2017-Oct-19 06:57N 35°17' E 139°41'0 0.0
2017-Oct-19 06:30N 35°17' E 139°41'0 0.0
2017-Oct-19 05:54N 35°17' E 139°41'0 0.0
2017-Oct-19 05:25N 35°17' E 139°41'2 4.7
2017-Oct-19 05:01N 35°19' E 139°42'3 6.7
2017-Oct-19 04:30N 35°22' E 139°44'0 0.1
2017-Oct-19 04:01N 35°22' E 139°44'0 0.0
2017-Oct-19 03:30N 35°22' E 139°44'0 0.0
2017-Oct-19 03:00N 35°22' E 139°44'0 0.1
2017-Oct-19 02:30N 35°22' E 139°44'4 8.7
2017-Oct-19 02:00N 35°18' E 139°42'1 2.2
2017-Oct-19 01:30N 35°17' E 139°41'0 0.0
2017-Oct-19 01:01N 35°17' E 139°41'0 0.0
2017-Oct-19 00:30N 35°17' E 139°41'0 0.0
2017-Oct-19 00:00N 35°17' E 139°41'0 0.0
2017-Oct-18 23:30N 35°17' E 139°41'0 0.0
2017-Oct-18 23:01N 35°17' E 139°41'0 0.0
2017-Oct-18 22:30N 35°17' E 139°41'0 0.0
2017-Oct-18 22:00N 35°17' E 139°41'0 0.0
2017-Oct-18 21:30N 35°17' E 139°41'0 0.0
2017-Oct-18 21:00N 35°17' E 139°41'0 0.0
2017-Oct-18 20:31N 35°17' E 139°41'0 0.0
2017-Oct-18 20:00N 35°17' E 139°41'0 0.0
2017-Oct-18 19:30N 35°17' E 139°41'0 0.0
2017-Oct-18 19:00N 35°17' E 139°41'0 0.0
2017-Oct-18 18:31N 35°17' E 139°41'0 0.0
2017-Oct-18 18:01N 35°17' E 139°41'0 0.0
2017-Oct-18 17:30N 35°17' E 139°41'0 0.0
2017-Oct-18 17:00N 35°17' E 139°41'0 0.0
2017-Oct-18 16:31N 35°17' E 139°41'0 0.0
2017-Oct-18 16:00N 35°17' E 139°41'0 0.0
2017-Oct-18 15:31N 35°17' E 139°41'0 0.0
2017-Oct-18 15:01N 35°17' E 139°41'0 0.0
2017-Oct-18 14:01N 35°17' E 139°41'0 0.0
2017-Oct-18 13:31N 35°17' E 139°41'0 0.0
2017-Oct-18 13:00N 35°17' E 139°41'0 0.0
2017-Oct-18 12:30N 35°17' E 139°41'0 0.0
2017-Oct-18 12:00N 35°17' E 139°41'0 0.0
2017-Oct-18 11:31N 35°17' E 139°41'0 0.0
2017-Oct-18 11:00N 35°17' E 139°41'0 0.0
2017-Oct-18 10:30N 35°17' E 139°41'0 0.0
2017-Oct-18 10:00N 35°17' E 139°41'0 0.0
2017-Oct-18 09:31N 35°17' E 139°41'0 0.0
2017-Oct-18 09:00N 35°17' E 139°41'0 0.0
2017-Oct-18 08:30N 35°17' E 139°41'0 0.0
2017-Oct-18 08:00N 35°17' E 139°41'0 0.0
2017-Oct-18 07:31N 35°17' E 139°41'0 0.0
2017-Oct-18 07:00N 35°17' E 139°41'0 0.0
2017-Oct-18 06:30N 35°17' E 139°41'0 0.0
2017-Oct-18 06:01N 35°17' E 139°41'0 0.0
2017-Oct-18 05:29N 35°17' E 139°41'0 0.0
2017-Oct-18 05:00N 35°17' E 139°41'0 0.0
2017-Oct-18 04:29N 35°17' E 139°41'0 0.0
2017-Oct-18 04:01N 35°17' E 139°41'0 0.0
2017-Oct-18 03:30N 35°17' E 139°41'0 0.0
2017-Oct-18 03:00N 35°17' E 139°41'3 5.2
2017-Oct-18 02:31N 35°17' E 139°44'5 9.9
2017-Oct-18 02:00N 35°12' E 139°46'510.6
2017-Oct-18 01:30N 35°17' E 139°45'612.5
2017-Oct-18 01:00N 35°23' E 139°42'713.5
2017-Oct-18 00:30N 35°29' E 139°47'1 1.2
2017-Oct-17 23:54N 35°29' E 139°47'1 1.3
2017-Oct-17 23:29N 35°29' E 139°46'0 0.0
2017-Oct-17 23:00N 35°29' E 139°46'0 0.0
2017-Oct-17 22:20N 35°29' E 139°46'0 0.0
2017-Oct-17 21:59N 35°29' E 139°46'1 2.4
2017-Oct-17 21:28N 35°28' E 139°45'4 7.9
2017-Oct-17 21:00N 35°25' E 139°43'0 0.0
2017-Oct-17 20:30N 35°25' E 139°43'0 0.2
2017-Oct-17 20:00N 35°25' E 139°43'0 0.1
2017-Oct-17 19:30N 35°25' E 139°43'0 0.0
2017-Oct-17 19:00N 35°25' E 139°43'0 0.0
2017-Oct-17 18:30N 35°25' E 139°43'0 0.0
2017-Oct-17 18:01N 35°25' E 139°43'0 0.0
2017-Oct-17 17:30N 35°25' E 139°43'0 0.0
2017-Oct-17 17:01N 35°25' E 139°43'0 0.0
2017-Oct-17 16:30N 35°25' E 139°43'0 0.0
2017-Oct-17 16:00N 35°25' E 139°43'0 0.0
2017-Oct-17 15:31N 35°25' E 139°43'0 0.0
2017-Oct-17 15:00N 35°25' E 139°43'0 0.0
2017-Oct-17 14:31N 35°25' E 139°43'0 0.0
2017-Oct-17 14:01N 35°25' E 139°43'0 0.0
2017-Oct-17 13:31N 35°25' E 139°43'0 0.0
2017-Oct-17 13:00N 35°25' E 139°43'0 0.2
2017-Oct-17 12:30N 35°25' E 139°43'0 0.0
2017-Oct-17 12:01N 35°25' E 139°43'0 0.2
2017-Oct-17 11:30N 35°25' E 139°43'0 0.2
2017-Oct-17 11:01N 35°25' E 139°43'0 0.5
2017-Oct-17 10:30N 35°25' E 139°43'0 0.3
2017-Oct-17 10:01N 35°25' E 139°43'0 0.2
2017-Oct-17 09:31N 35°25' E 139°43'0 0.4
2017-Oct-17 09:00N 35°25' E 139°43'1 1.9
2017-Oct-17 08:30N 35°24' E 139°42'5 9.9
2017-Oct-17 08:00N 35°19' E 139°42'2 4.7
2017-Oct-17 07:30N 35°17' E 139°41'0 0.0
2017-Oct-17 06:59N 35°17' E 139°41'0 0.0
2017-Oct-17 06:29N 35°17' E 139°41'0 0.0
2017-Oct-17 06:00N 35°17' E 139°41'0 0.0
2017-Oct-17 05:30N 35°17' E 139°41'0 0.0
2017-Oct-17 05:00N 35°17' E 139°41'0 0.0
2017-Oct-17 04:30N 35°17' E 139°41'3 5.9
2017-Oct-17 04:00N 35°17' E 139°44'4 7.7
2017-Oct-17 03:31N 35°13' E 139°46'611.5
2017-Oct-17 03:01N 35°18' E 139°44'611.5
2017-Oct-17 02:30N 35°24' E 139°43'714.1
2017-Oct-17 02:01N 35°28' E 139°50'7 8.7
2017-Oct-17 01:15N 35°29' E 139°58'4 1.4
2017-Oct-16 22:21N 35°27' E 139°53'410.1
2017-Oct-16 21:55N 35°26' E 139°48'3 6.3
2017-Oct-16 21:31N 35°24' E 139°46'611.1
2017-Oct-16 21:00N 35°19' E 139°44'611.5
2017-Oct-16 20:30N 35°13' E 139°47'3 6.9
2017-Oct-16 20:00N 35°10' E 139°47'3 6.6
2017-Oct-16 19:30N 35°13' E 139°46'611.1
2017-Oct-16 19:00N 35°18' E 139°42'1 2.5
2017-Oct-16 18:30N 35°17' E 139°41'0 0.0
2017-Oct-16 18:00N 35°17' E 139°41'0 0.0
2017-Oct-16 17:31N 35°17' E 139°41'0 0.1
2017-Oct-16 17:01N 35°17' E 139°41'0 0.1
2017-Oct-16 16:30N 35°17' E 139°41'0 0.1
2017-Oct-16 16:01N 35°17' E 139°41'0 0.0
2017-Oct-16 15:31N 35°17' E 139°41'0 0.1
2017-Oct-16 15:01N 35°17' E 139°41'0 0.0
2017-Oct-16 14:00N 35°17' E 139°41'0 0.1
2017-Oct-16 13:30N 35°17' E 139°41'0 0.1
2017-Oct-16 13:00N 35°17' E 139°41'0 0.0
2017-Oct-16 12:30N 35°17' E 139°41'0 0.1
2017-Oct-16 12:00N 35°17' E 139°41'0 0.1
2017-Oct-16 11:30N 35°17' E 139°41'0 0.1
2017-Oct-16 11:00N 35°17' E 139°41'0 0.1
2017-Oct-16 10:30N 35°17' E 139°41'0 0.0
2017-Oct-16 10:00N 35°17' E 139°41'0 0.0
2017-Oct-16 09:31N 35°17' E 139°41'0 0.1
2017-Oct-16 09:01N 35°17' E 139°41'0 0.1
2017-Oct-16 08:30N 35°17' E 139°41'0 0.0
2017-Oct-16 08:01N 35°17' E 139°41'0 0.0
2017-Oct-16 07:30N 35°17' E 139°41'0 0.1
2017-Oct-16 07:00N 35°17' E 139°41'0 0.0
2017-Oct-16 06:30N 35°17' E 139°41'2 3.4
2017-Oct-16 06:00N 35°17' E 139°43'5 9.4
2017-Oct-16 05:30N 35°13' E 139°46'3 6.9
2017-Oct-16 05:01N 35°17' E 139°45'612.2
2017-Oct-16 04:31N 35°22' E 139°42'510.6
2017-Oct-16 04:00N 35°25' E 139°48'5 9.5
2017-Oct-16 03:31N 35°20' E 139°49'0 0.6
2017-Oct-16 03:01N 35°20' E 139°49'1 3.0
2017-Oct-16 02:30N 35°22' E 139°49'1 2.8
2017-Oct-16 02:00N 35°23' E 139°48'4 7.7
2017-Oct-16 01:31N 35°22' E 139°43'3 6.1
2017-Oct-16 01:00N 35°19' E 139°43'611.9
2017-Oct-16 00:30N 35°14' E 139°47'4 8.8
2017-Oct-16 00:00N 35°10' E 139°47'4 7.6
2017-Oct-15 23:30N 35°13' E 139°46'510.5
2017-Oct-15 23:00N 35°18' E 139°42'1 2.8
2017-Oct-15 22:30N 35°17' E 139°41'0 0.0
2017-Oct-15 22:00N 35°17' E 139°41'0 0.0
2017-Oct-15 21:30N 35°17' E 139°41'0 0.0
2017-Oct-15 21:00N 35°17' E 139°41'0 0.0
2017-Oct-15 20:30N 35°17' E 139°41'0 0.0
2017-Oct-15 19:59N 35°17' E 139°41'0 0.0
2017-Oct-15 19:30N 35°17' E 139°41'0 0.0
2017-Oct-15 19:00N 35°17' E 139°41'0 0.0
2017-Oct-15 18:30N 35°17' E 139°41'0 0.0
2017-Oct-15 18:00N 35°17' E 139°41'0 0.0
2017-Oct-15 17:30N 35°17' E 139°41'0 0.0
2017-Oct-15 17:00N 35°17' E 139°41'0 0.0
2017-Oct-15 16:30N 35°17' E 139°41'0 0.0
2017-Oct-15 16:00N 35°17' E 139°41'0 0.0
2017-Oct-15 15:29N 35°17' E 139°41'0 0.0
2017-Oct-15 15:00N 35°17' E 139°41'0 0.0
2017-Oct-15 13:59N 35°17' E 139°41'0 0.0
2017-Oct-15 13:30N 35°17' E 139°41'0 0.0
2017-Oct-15 12:59N 35°17' E 139°41'0 0.0
2017-Oct-15 12:25N 35°17' E 139°41'0 0.0
2017-Oct-15 12:00N 35°17' E 139°41'0 0.0
2017-Oct-15 11:30N 35°17' E 139°41'0 0.0
2017-Oct-15 10:57N 35°17' E 139°41'0 0.0
2017-Oct-15 10:30N 35°17' E 139°41'0 0.0
2017-Oct-15 09:59N 35°17' E 139°41'0 0.0
2017-Oct-15 09:13N 35°17' E 139°41'0 0.0
2017-Oct-15 08:48N 35°17' E 139°41'0 0.0
2017-Oct-15 08:19N 35°17' E 139°41'0 0.0
2017-Oct-15 07:45N 35°17' E 139°41'0 0.0
2017-Oct-15 07:19N 35°17' E 139°41'0 0.0
2017-Oct-15 06:52N 35°17' E 139°41'0 0.0
2017-Oct-15 06:24N 35°17' E 139°41'0 0.0
2017-Oct-15 06:00N 35°17' E 139°41'0 0.0
2017-Oct-15 05:12N 35°17' E 139°41'0 0.0
2017-Oct-15 04:55N 35°17' E 139°41'0 0.0
2017-Oct-15 02:29N 35°17' E 139°41'0 0.0
2017-Oct-15 01:47N 35°17' E 139°41'0 0.0
2017-Oct-15 01:20N 35°17' E 139°41'0 0.0
2017-Oct-15 00:59N 35°17' E 139°41'4 8.7
2017-Oct-15 00:30N 35°21' E 139°42'3 6.7
2017-Oct-15 00:00N 35°23' E 139°46'4 8.7
2017-Oct-14 23:30N 35°19' E 139°44'611.3
2017-Oct-14 23:00N 35°13' E 139°47'4 7.6
2017-Oct-14 22:30N 35°09' E 139°47'3 5.6
2017-Oct-14 22:00N 35°12' E 139°46'611.7
2017-Oct-14 21:27N 35°18' E 139°43'510.1
2017-Oct-14 21:00N 35°23' E 139°44'1 2.2
2017-Oct-14 20:30N 35°22' E 139°45'611.5
2017-Oct-14 20:00N 35°16' E 139°46'612.0
2017-Oct-14 19:30N 35°11' E 139°47'0 0.8
2017-Oct-14 19:00N 35°11' E 139°46'4 1.1
2017-Oct-14 15:24N 35°13' E 139°43'0 0.0
2017-Oct-14 15:00N 35°13' E 139°43'0 0.0
2017-Oct-14 14:11N 35°13' E 139°43'0 0.0
2017-Oct-14 14:00N 35°13' E 139°43'0 0.0
2017-Oct-14 13:30N 35°13' E 139°43'0 0.0
2017-Oct-14 13:00N 35°13' E 139°43'3 5.9
2017-Oct-14 12:30N 35°12' E 139°46'612.0
2017-Oct-14 12:00N 35°18' E 139°44'612.3
2017-Oct-14 11:30N 35°24' E 139°43'2 3.7
2017-Oct-14 11:00N 35°24' E 139°45'0 0.0
2017-Oct-14 10:30N 35°24' E 139°45'0 0.1
2017-Oct-14 10:00N 35°24' E 139°45'0 0.0
2017-Oct-14 09:30N 35°24' E 139°45'2 3.1
2017-Oct-14 09:00N 35°23' E 139°46'510.9
2017-Oct-14 08:30N 35°17' E 139°45'510.9
2017-Oct-14 08:00N 35°12' E 139°47'1 2.3
2017-Oct-14 07:30N 35°11' E 139°47'510.0
2017-Oct-14 07:01N 35°15' E 139°45'4 8.4
2017-Oct-14 06:30N 35°17' E 139°41'0 0.2
2017-Oct-14 05:50N 35°17' E 139°41'0 0.0
2017-Oct-14 05:30N 35°17' E 139°41'0 0.0
2017-Oct-14 05:00N 35°17' E 139°41'0 0.0
2017-Oct-14 04:29N 35°17' E 139°41'0 0.0
2017-Oct-14 04:00N 35°17' E 139°41'0 0.0
2017-Oct-14 03:28N 35°17' E 139°41'0 1.0
2017-Oct-14 03:01N 35°17' E 139°41'510.8
2017-Oct-14 02:30N 35°22' E 139°44'2 3.9
2017-Oct-14 02:00N 35°23' E 139°46'612.0
2017-Oct-14 01:30N 35°17' E 139°45'711.1
2017-Oct-14 00:50N 35°10' E 139°46'4 8.4
2017-Oct-14 00:23N 35°14' E 139°46'511.3
2017-Oct-13 23:58N 35°18' E 139°43'2 3.5
2017-Oct-13 23:29N 35°17' E 139°41'0 0.0
2017-Oct-13 23:00N 35°17' E 139°41'0 0.0
2017-Oct-13 22:30N 35°17' E 139°41'0 0.0
2017-Oct-13 21:56N 35°17' E 139°41'0 0.0
2017-Oct-13 21:29N 35°17' E 139°41'0 0.0
2017-Oct-13 21:00N 35°17' E 139°41'0 0.0
2017-Oct-13 20:30N 35°17' E 139°41'0 0.0
2017-Oct-13 19:59N 35°17' E 139°41'0 0.0
2017-Oct-13 19:30N 35°17' E 139°41'0 0.0
2017-Oct-13 19:00N 35°17' E 139°41'0 0.0
2017-Oct-13 18:30N 35°17' E 139°41'0 0.0
2017-Oct-13 18:00N 35°17' E 139°41'0 0.0
2017-Oct-13 17:30N 35°17' E 139°41'0 0.0
2017-Oct-13 17:00N 35°17' E 139°41'0 0.0
2017-Oct-13 16:30N 35°17' E 139°41'0 0.0
2017-Oct-13 16:00N 35°17' E 139°41'0 0.0
2017-Oct-13 15:30N 35°17' E 139°41'0 0.0
2017-Oct-13 15:00N 35°17' E 139°41'0 0.0
2017-Oct-13 14:30N 35°17' E 139°41'0 0.0
2017-Oct-13 14:00N 35°17' E 139°41'0 0.0
2017-Oct-13 13:30N 35°17' E 139°41'0 0.0
2017-Oct-13 13:00N 35°17' E 139°41'0 0.0
2017-Oct-13 12:30N 35°17' E 139°41'0 0.0
2017-Oct-13 12:00N 35°17' E 139°41'0 0.0
2017-Oct-13 11:30N 35°17' E 139°41'0 0.0
2017-Oct-13 11:00N 35°17' E 139°41'0 0.0
2017-Oct-13 10:30N 35°17' E 139°41'0 0.0
2017-Oct-13 10:00N 35°17' E 139°41'0 0.0
2017-Oct-13 09:29N 35°17' E 139°41'0 0.0
2017-Oct-13 09:00N 35°17' E 139°41'0 0.0
2017-Oct-13 08:30N 35°17' E 139°41'0 0.0
2017-Oct-13 08:00N 35°17' E 139°41'0 0.0
2017-Oct-13 07:29N 35°17' E 139°41'0 0.0
2017-Oct-13 07:00N 35°17' E 139°41'0 0.0
2017-Oct-13 06:30N 35°17' E 139°41'0 0.0
2017-Oct-13 06:00N 35°17' E 139°41'0 0.0
2017-Oct-13 05:29N 35°17' E 139°41'0 0.0
2017-Oct-13 05:00N 35°17' E 139°41'0 0.0
2017-Oct-13 04:30N 35°17' E 139°41'0 0.0
2017-Oct-13 03:59N 35°17' E 139°41'0 0.0
2017-Oct-13 03:29N 35°17' E 139°41'0 0.0
2017-Oct-13 02:46N 35°17' E 139°41'0 0.0
2017-Oct-13 02:12N 35°17' E 139°41'0 0.0
2017-Oct-13 01:56N 35°17' E 139°41'0 0.0
2017-Oct-13 01:29N 35°17' E 139°41'0 0.0
2017-Oct-13 01:00N 35°17' E 139°41'0 0.0
2017-Oct-13 00:29N 35°17' E 139°41'0 0.0
2017-Oct-12 23:59N 35°17' E 139°41'3 6.9
2017-Oct-12 23:30N 35°16' E 139°44'3 6.5
2017-Oct-12 23:00N 35°13' E 139°43'3 5.4
2017-Oct-12 22:30N 35°15' E 139°46'612.7
2017-Oct-12 22:00N 35°20' E 139°42'612.4
2017-Oct-12 21:31N 35°26' E 139°44'1 2.0
2017-Oct-12 21:00N 35°27' E 139°43'2 3.3
2017-Oct-12 20:30N 35°25' E 139°42'510.6
2017-Oct-12 20:00N 35°20' E 139°42'3 5.9
2017-Oct-12 19:30N 35°17' E 139°41'0 0.0
2017-Oct-12 19:00N 35°17' E 139°41'0 0.0
2017-Oct-12 18:29N 35°17' E 139°41'0 0.0
2017-Oct-12 18:00N 35°17' E 139°41'0 0.0
2017-Oct-12 17:30N 35°17' E 139°41'0 0.0
2017-Oct-12 17:00N 35°17' E 139°41'0 0.0
2017-Oct-12 16:30N 35°17' E 139°41'0 0.0
2017-Oct-12 16:00N 35°17' E 139°41'0 0.0
2017-Oct-12 15:30N 35°17' E 139°41'0 0.0
2017-Oct-12 15:00N 35°17' E 139°41'0 0.0
2017-Oct-12 14:30N 35°17' E 139°41'0 0.0
2017-Oct-12 14:00N 35°17' E 139°41'1 2.4
2017-Oct-12 13:30N 35°18' E 139°42'5 9.4
2017-Oct-12 13:00N 35°14' E 139°45'2 3.2
2017-Oct-12 12:30N 35°15' E 139°46'612.6
2017-Oct-12 12:00N 35°21' E 139°42'2 4.3
2017-Oct-12 11:30N 35°19' E 139°42'2 3.9
2017-Oct-12 11:00N 35°17' E 139°41'0 0.0
2017-Oct-12 10:29N 35°17' E 139°41'0 0.0
2017-Oct-12 09:59N 35°17' E 139°41'1 2.5
2017-Oct-12 09:30N 35°18' E 139°42'4 8.7
2017-Oct-12 09:00N 35°14' E 139°45'1 1.8
2017-Oct-12 08:30N 35°15' E 139°46'5 9.7
2017-Oct-12 08:00N 35°19' E 139°43'5 9.3
2017-Oct-12 07:30N 35°24' E 139°42'5 9.1
2017-Oct-12 07:00N 35°27' E 139°46'2 4.2
2017-Oct-12 06:30N 35°29' E 139°47'0 0.2
2017-Oct-12 06:00N 35°29' E 139°47'0 0.2
2017-Oct-12 05:30N 35°29' E 139°47'1 2.8
2017-Oct-12 05:00N 35°28' E 139°46'5 9.4
2017-Oct-12 04:30N 35°24' E 139°44'611.1
2017-Oct-12 04:00N 35°18' E 139°42'1 2.8
2017-Oct-12 03:29N 35°17' E 139°41'0 0.0
2017-Oct-12 02:57N 35°17' E 139°41'0 0.0
2017-Oct-12 02:30N 35°17' E 139°41'0 0.0
2017-Oct-12 02:00N 35°17' E 139°41'9 0.3
2017-Oct-10 21:30N 35°24' E 139°49'611.3
2017-Oct-10 21:00N 35°20' E 139°44'4 0.5
2017-Oct-10 13:52N 35°17' E 139°41'0 0.0
2017-Oct-10 13:29N 35°17' E 139°41'0 0.1
2017-Oct-10 11:22N 35°17' E 139°41'4 9.3
2017-Oct-10 10:59N 35°16' E 139°45'4 7.8
2017-Oct-10 10:30N 35°13' E 139°46'612.4
2017-Oct-10 10:01N 35°18' E 139°44'8 7.4
2017-Oct-10 08:57N 35°26' E 139°42'  
Track history (hours):
 
Tides and Currents Weather Stations Pressure Air Temp Water Temp Dewpoint Dewpoint Depression Visibility Wind Speed Wind Dir Waves Ship Positions

Nagatomaru

Last reported at 2017-Oct-20 08:30 UTC. Time now 2017-Oct-20 08:53 UTC.
Position N 35°17' E 139°41'.

Length 38 m; draft 3 m.

Type: Tug. MMSI: 431005054.

Date/timePositionNaut miles runAvg speedWind from/ knotsBaromVisibWave heightAir tempDewpointWater temp
2017-Oct-20 08:30N 35°17' E 139°41'0 0.0
2017-Oct-20 08:00N 35°17' E 139°41'0 0.0
2017-Oct-20 07:30N 35°17' E 139°41'0 0.0
2017-Oct-20 07:00N 35°17' E 139°41'0 0.0
2017-Oct-20 06:31N 35°17' E 139°41'0 0.0
2017-Oct-20 06:01N 35°17' E 139°41'0 0.0
2017-Oct-20 05:31N 35°17' E 139°41'1 1.9
2017-Oct-20 05:00N 35°18' E 139°41'510.7
2017-Oct-20 04:31N 35°22' E 139°44'510.7
2017-Oct-20 04:00N 35°25' E 139°50'5 9.6
2017-Oct-20 03:30N 35°29' E 139°54'6 6.4
2017-Oct-20 02:36N 35°26' E 139°48'110.8
2017-Oct-20 02:30N 35°25' E 139°47'611.3
2017-Oct-20 02:00N 35°20' E 139°44'610.9
2017-Oct-20 01:30N 35°15' E 139°47'510.2
2017-Oct-20 01:01N 35°10' E 139°46'4 7.8
2017-Oct-20 00:30N 35°13' E 139°44'1 1.9
2017-Oct-20 00:00N 35°13' E 139°43'0 0.0
2017-Oct-19 23:30N 35°13' E 139°43'0 0.0
2017-Oct-19 23:00N 35°13' E 139°43'3 5.4
2017-Oct-19 22:30N 35°12' E 139°46'4 8.6
2017-Oct-19 22:00N 35°16' E 139°46'713.0
2017-Oct-19 21:30N 35°22' E 139°42'2 3.7
2017-Oct-19 21:01N 35°23' E 139°41'0 0.8
2017-Oct-19 20:30N 35°23' E 139°40'3 6.6
2017-Oct-19 20:01N 35°20' E 139°42'3 5.2
2017-Oct-19 19:27N 35°17' E 139°41'0 0.0
2017-Oct-19 19:01N 35°17' E 139°41'0 0.0
2017-Oct-19 18:31N 35°17' E 139°41'0 0.0
2017-Oct-19 18:00N 35°17' E 139°41'0 0.0
2017-Oct-19 17:24N 35°17' E 139°41'0 0.0
2017-Oct-19 16:44N 35°17' E 139°41'0 0.0
2017-Oct-19 16:21N 35°17' E 139°41'0 0.0
2017-Oct-19 15:54N 35°17' E 139°41'0 0.0
2017-Oct-19 15:15N 35°17' E 139°41'0 0.0
2017-Oct-19 14:54N 35°17' E 139°41'0 0.0
2017-Oct-19 14:30N 35°17' E 139°41'0 0.0
2017-Oct-19 14:00N 35°17' E 139°41'0 0.0
2017-Oct-19 13:29N 35°17' E 139°41'0 0.0
2017-Oct-19 13:00N 35°17' E 139°41'0 0.0
2017-Oct-19 12:29N 35°17' E 139°41'0 0.0
2017-Oct-19 11:59N 35°17' E 139°41'0 0.0
2017-Oct-19 11:30N 35°17' E 139°41'0 0.0
2017-Oct-19 10:57N 35°17' E 139°41'0 0.0
2017-Oct-19 10:30N 35°17' E 139°41'0 0.0
2017-Oct-19 10:00N 35°17' E 139°41'0 0.0
2017-Oct-19 09:30N 35°17' E 139°41'0 0.0
2017-Oct-19 09:00N 35°17' E 139°41'0 0.0
2017-Oct-19 08:27N 35°17' E 139°41'0 0.0
2017-Oct-19 08:00N 35°17' E 139°41'0 0.0
2017-Oct-19 07:30N 35°17' E 139°41'0 0.0
2017-Oct-19 06:57N 35°17' E 139°41'0 0.0
2017-Oct-19 06:30N 35°17' E 139°41'0 0.0
2017-Oct-19 05:54N 35°17' E 139°41'0 0.0
2017-Oct-19 05:25N 35°17' E 139°41'2 4.7
2017-Oct-19 05:01N 35°19' E 139°42'3 6.7
2017-Oct-19 04:30N 35°22' E 139°44'0 0.1
2017-Oct-19 04:01N 35°22' E 139°44'0 0.0
2017-Oct-19 03:30N 35°22' E 139°44'0 0.0
2017-Oct-19 03:00N 35°22' E 139°44'0 0.1
2017-Oct-19 02:30N 35°22' E 139°44'4 8.7
2017-Oct-19 02:00N 35°18' E 139°42'1 2.2
2017-Oct-19 01:30N 35°17' E 139°41'0 0.0
2017-Oct-19 01:01N 35°17' E 139°41'0 0.0
2017-Oct-19 00:30N 35°17' E 139°41'0 0.0
2017-Oct-19 00:00N 35°17' E 139°41'0 0.0
2017-Oct-18 23:30N 35°17' E 139°41'0 0.0
2017-Oct-18 23:01N 35°17' E 139°41'0 0.0
2017-Oct-18 22:30N 35°17' E 139°41'0 0.0
2017-Oct-18 22:00N 35°17' E 139°41'0 0.0
2017-Oct-18 21:30N 35°17' E 139°41'0 0.0
2017-Oct-18 21:00N 35°17' E 139°41'0 0.0
2017-Oct-18 20:31N 35°17' E 139°41'0 0.0
2017-Oct-18 20:00N 35°17' E 139°41'0 0.0
2017-Oct-18 19:30N 35°17' E 139°41'0 0.0
2017-Oct-18 19:00N 35°17' E 139°41'0 0.0
2017-Oct-18 18:31N 35°17' E 139°41'0 0.0
2017-Oct-18 18:01N 35°17' E 139°41'0 0.0
2017-Oct-18 17:30N 35°17' E 139°41'0 0.0
2017-Oct-18 17:00N 35°17' E 139°41'0 0.0
2017-Oct-18 16:31N 35°17' E 139°41'0 0.0
2017-Oct-18 16:00N 35°17' E 139°41'0 0.0
2017-Oct-18 15:31N 35°17' E 139°41'0 0.0
2017-Oct-18 15:01N 35°17' E 139°41'0 0.0
2017-Oct-18 14:01N 35°17' E 139°41'0 0.0
2017-Oct-18 13:31N 35°17' E 139°41'0 0.0
2017-Oct-18 13:00N 35°17' E 139°41'0 0.0
2017-Oct-18 12:30N 35°17' E 139°41'0 0.0
2017-Oct-18 12:00N 35°17' E 139°41'0 0.0
2017-Oct-18 11:31N 35°17' E 139°41'0 0.0
2017-Oct-18 11:00N 35°17' E 139°41'0 0.0
2017-Oct-18 10:30N 35°17' E 139°41'0 0.0
2017-Oct-18 10:00N 35°17' E 139°41'0 0.0
2017-Oct-18 09:31N 35°17' E 139°41'0 0.0
2017-Oct-18 09:00N 35°17' E 139°41'0 0.0
2017-Oct-18 08:30N 35°17' E 139°41'0 0.0
2017-Oct-18 08:00N 35°17' E 139°41'0 0.0
2017-Oct-18 07:31N 35°17' E 139°41'0 0.0
2017-Oct-18 07:00N 35°17' E 139°41'0 0.0
2017-Oct-18 06:30N 35°17' E 139°41'0 0.0
2017-Oct-18 06:01N 35°17' E 139°41'0 0.0
2017-Oct-18 05:29N 35°17' E 139°41'0 0.0
2017-Oct-18 05:00N 35°17' E 139°41'0 0.0
2017-Oct-18 04:29N 35°17' E 139°41'0 0.0
2017-Oct-18 04:01N 35°17' E 139°41'0 0.0
2017-Oct-18 03:30N 35°17' E 139°41'0 0.0
2017-Oct-18 03:00N 35°17' E 139°41'3 5.2
2017-Oct-18 02:31N 35°17' E 139°44'5 9.9
2017-Oct-18 02:00N 35°12' E 139°46'510.6
2017-Oct-18 01:30N 35°17' E 139°45'612.5
2017-Oct-18 01:00N 35°23' E 139°42'713.5
2017-Oct-18 00:30N 35°29' E 139°47'1 1.2
2017-Oct-17 23:54N 35°29' E 139°47'1 1.3
2017-Oct-17 23:29N 35°29' E 139°46'0 0.0
2017-Oct-17 23:00N 35°29' E 139°46'0 0.0
2017-Oct-17 22:20N 35°29' E 139°46'0 0.0
2017-Oct-17 21:59N 35°29' E 139°46'1 2.4
2017-Oct-17 21:28N 35°28' E 139°45'4 7.9
2017-Oct-17 21:00N 35°25' E 139°43'0 0.0
2017-Oct-17 20:30N 35°25' E 139°43'0 0.2
2017-Oct-17 20:00N 35°25' E 139°43'0 0.1
2017-Oct-17 19:30N 35°25' E 139°43'0 0.0
2017-Oct-17 19:00N 35°25' E 139°43'0 0.0
2017-Oct-17 18:30N 35°25' E 139°43'0 0.0
2017-Oct-17 18:01N 35°25' E 139°43'0 0.0
2017-Oct-17 17:30N 35°25' E 139°43'0 0.0
2017-Oct-17 17:01N 35°25' E 139°43'0 0.0
2017-Oct-17 16:30N 35°25' E 139°43'0 0.0
2017-Oct-17 16:00N 35°25' E 139°43'0 0.0
2017-Oct-17 15:31N 35°25' E 139°43'0 0.0
2017-Oct-17 15:00N 35°25' E 139°43'0 0.0
2017-Oct-17 14:31N 35°25' E 139°43'0 0.0
2017-Oct-17 14:01N 35°25' E 139°43'0 0.0
2017-Oct-17 13:31N 35°25' E 139°43'0 0.0
2017-Oct-17 13:00N 35°25' E 139°43'0 0.2
2017-Oct-17 12:30N 35°25' E 139°43'0 0.0
2017-Oct-17 12:01N 35°25' E 139°43'0 0.2
2017-Oct-17 11:30N 35°25' E 139°43'0 0.2
2017-Oct-17 11:01N 35°25' E 139°43'0 0.5
2017-Oct-17 10:30N 35°25' E 139°43'0 0.3
2017-Oct-17 10:01N 35°25' E 139°43'0 0.2
2017-Oct-17 09:31N 35°25' E 139°43'0 0.4
2017-Oct-17 09:00N 35°25' E 139°43'1 1.9
2017-Oct-17 08:30N 35°24' E 139°42'5 9.9
2017-Oct-17 08:00N 35°19' E 139°42'2 4.7
2017-Oct-17 07:30N 35°17' E 139°41'0 0.0
2017-Oct-17 06:59N 35°17' E 139°41'0 0.0
2017-Oct-17 06:29N 35°17' E 139°41'0 0.0
2017-Oct-17 06:00N 35°17' E 139°41'0 0.0
2017-Oct-17 05:30N 35°17' E 139°41'0 0.0
2017-Oct-17 05:00N 35°17' E 139°41'0 0.0
2017-Oct-17 04:30N 35°17' E 139°41'3 5.9
2017-Oct-17 04:00N 35°17' E 139°44'4 7.7
2017-Oct-17 03:31N 35°13' E 139°46'611.5
2017-Oct-17 03:01N 35°18' E 139°44'611.5
2017-Oct-17 02:30N 35°24' E 139°43'714.1
2017-Oct-17 02:01N 35°28' E 139°50'7 8.7
2017-Oct-17 01:15N 35°29' E 139°58'4 1.4
2017-Oct-16 22:21N 35°27' E 139°53'410.1
2017-Oct-16 21:55N 35°26' E 139°48'3 6.3
2017-Oct-16 21:31N 35°24' E 139°46'611.1
2017-Oct-16 21:00N 35°19' E 139°44'611.5
2017-Oct-16 20:30N 35°13' E 139°47'3 6.9
2017-Oct-16 20:00N 35°10' E 139°47'3 6.6
2017-Oct-16 19:30N 35°13' E 139°46'611.1
2017-Oct-16 19:00N 35°18' E 139°42'1 2.5
2017-Oct-16 18:30N 35°17' E 139°41'0 0.0
2017-Oct-16 18:00N 35°17' E 139°41'0 0.0
2017-Oct-16 17:31N 35°17' E 139°41'0 0.1
2017-Oct-16 17:01N 35°17' E 139°41'0 0.1
2017-Oct-16 16:30N 35°17' E 139°41'0 0.1
2017-Oct-16 16:01N 35°17' E 139°41'0 0.0
2017-Oct-16 15:31N 35°17' E 139°41'0 0.1
2017-Oct-16 15:01N 35°17' E 139°41'0 0.0
2017-Oct-16 14:00N 35°17' E 139°41'0 0.1
2017-Oct-16 13:30N 35°17' E 139°41'0 0.1
2017-Oct-16 13:00N 35°17' E 139°41'0 0.0
2017-Oct-16 12:30N 35°17' E 139°41'0 0.1
2017-Oct-16 12:00N 35°17' E 139°41'0 0.1
2017-Oct-16 11:30N 35°17' E 139°41'0 0.1
2017-Oct-16 11:00N 35°17' E 139°41'0 0.1
2017-Oct-16 10:30N 35°17' E 139°41'0 0.0
2017-Oct-16 10:00N 35°17' E 139°41'0 0.0
2017-Oct-16 09:31N 35°17' E 139°41'0 0.1
2017-Oct-16 09:01N 35°17' E 139°41'0 0.1
2017-Oct-16 08:30N 35°17' E 139°41'0 0.0
2017-Oct-16 08:01N 35°17' E 139°41'0 0.0
2017-Oct-16 07:30N 35°17' E 139°41'0 0.1
2017-Oct-16 07:00N 35°17' E 139°41'0 0.0
2017-Oct-16 06:30N 35°17' E 139°41'2 3.4
2017-Oct-16 06:00N 35°17' E 139°43'5 9.4
2017-Oct-16 05:30N 35°13' E 139°46'3 6.9
2017-Oct-16 05:01N 35°17' E 139°45'612.2
2017-Oct-16 04:31N 35°22' E 139°42'510.6
2017-Oct-16 04:00N 35°25' E 139°48'5 9.5
2017-Oct-16 03:31N 35°20' E 139°49'0 0.6
2017-Oct-16 03:01N 35°20' E 139°49'1 3.0
2017-Oct-16 02:30N 35°22' E 139°49'1 2.8
2017-Oct-16 02:00N 35°23' E 139°48'4 7.7
2017-Oct-16 01:31N 35°22' E 139°43'3 6.1
2017-Oct-16 01:00N 35°19' E 139°43'611.9
2017-Oct-16 00:30N 35°14' E 139°47'4 8.8
2017-Oct-16 00:00N 35°10' E 139°47'4 7.6
2017-Oct-15 23:30N 35°13' E 139°46'510.5
2017-Oct-15 23:00N 35°18' E 139°42'1 2.8
2017-Oct-15 22:30N 35°17' E 139°41'0 0.0
2017-Oct-15 22:00N 35°17' E 139°41'0 0.0
2017-Oct-15 21:30N 35°17' E 139°41'0 0.0
2017-Oct-15 21:00N 35°17' E 139°41'0 0.0
2017-Oct-15 20:30N 35°17' E 139°41'0 0.0
2017-Oct-15 19:59N 35°17' E 139°41'0 0.0
2017-Oct-15 19:30N 35°17' E 139°41'0 0.0
2017-Oct-15 19:00N 35°17' E 139°41'0 0.0
2017-Oct-15 18:30N 35°17' E 139°41'0 0.0
2017-Oct-15 18:00N 35°17' E 139°41'0 0.0
2017-Oct-15 17:30N 35°17' E 139°41'0 0.0
2017-Oct-15 17:00N 35°17' E 139°41'0 0.0
2017-Oct-15 16:30N 35°17' E 139°41'0 0.0
2017-Oct-15 16:00N 35°17' E 139°41'0 0.0
2017-Oct-15 15:29N 35°17' E 139°41'0 0.0
2017-Oct-15 15:00N 35°17' E 139°41'0 0.0
2017-Oct-15 13:59N 35°17' E 139°41'0 0.0
2017-Oct-15 13:30N 35°17' E 139°41'0 0.0
2017-Oct-15 12:59N 35°17' E 139°41'0 0.0
2017-Oct-15 12:25N 35°17' E 139°41'0 0.0
2017-Oct-15 12:00N 35°17' E 139°41'0 0.0
2017-Oct-15 11:30N 35°17' E 139°41'0 0.0
2017-Oct-15 10:57N 35°17' E 139°41'0 0.0
2017-Oct-15 10:30N 35°17' E 139°41'0 0.0
2017-Oct-15 09:59N 35°17' E 139°41'0 0.0
2017-Oct-15 09:13N 35°17' E 139°41'0 0.0
2017-Oct-15 08:48N 35°17' E 139°41'0 0.0
2017-Oct-15 08:19N 35°17' E 139°41'0 0.0
2017-Oct-15 07:45N 35°17' E 139°41'0 0.0
2017-Oct-15 07:19N 35°17' E 139°41'0 0.0
2017-Oct-15 06:52N 35°17' E 139°41'0 0.0
2017-Oct-15 06:24N 35°17' E 139°41'0 0.0
2017-Oct-15 06:00N 35°17' E 139°41'0 0.0
2017-Oct-15 05:12N 35°17' E 139°41'0 0.0
2017-Oct-15 04:55N 35°17' E 139°41'0 0.0
2017-Oct-15 02:29N 35°17' E 139°41'0 0.0
2017-Oct-15 01:47N 35°17' E 139°41'0 0.0
2017-Oct-15 01:20N 35°17' E 139°41'0 0.0
2017-Oct-15 00:59N 35°17' E 139°41'4 8.7
2017-Oct-15 00:30N 35°21' E 139°42'3 6.7
2017-Oct-15 00:00N 35°23' E 139°46'4 8.7
2017-Oct-14 23:30N 35°19' E 139°44'611.3
2017-Oct-14 23:00N 35°13' E 139°47'4 7.6
2017-Oct-14 22:30N 35°09' E 139°47'3 5.6
2017-Oct-14 22:00N 35°12' E 139°46'611.7
2017-Oct-14 21:27N 35°18' E 139°43'510.1
2017-Oct-14 21:00N 35°23' E 139°44'1 2.2
2017-Oct-14 20:30N 35°22' E 139°45'611.5
2017-Oct-14 20:00N 35°16' E 139°46'612.0
2017-Oct-14 19:30N 35°11' E 139°47'0 0.8
2017-Oct-14 19:00N 35°11' E 139°46'4 1.1
2017-Oct-14 15:24N 35°13' E 139°43'0 0.0
2017-Oct-14 15:00N 35°13' E 139°43'0 0.0
2017-Oct-14 14:11N 35°13' E 139°43'0 0.0
2017-Oct-14 14:00N 35°13' E 139°43'0 0.0
2017-Oct-14 13:30N 35°13' E 139°43'0 0.0
2017-Oct-14 13:00N 35°13' E 139°43'3 5.9
2017-Oct-14 12:30N 35°12' E 139°46'612.0
2017-Oct-14 12:00N 35°18' E 139°44'612.3
2017-Oct-14 11:30N 35°24' E 139°43'2 3.7
2017-Oct-14 11:00N 35°24' E 139°45'0 0.0
2017-Oct-14 10:30N 35°24' E 139°45'0 0.1
2017-Oct-14 10:00N 35°24' E 139°45'0 0.0
2017-Oct-14 09:30N 35°24' E 139°45'2 3.1
2017-Oct-14 09:00N 35°23' E 139°46'510.9
2017-Oct-14 08:30N 35°17' E 139°45'510.9
2017-Oct-14 08:00N 35°12' E 139°47'1 2.3
2017-Oct-14 07:30N 35°11' E 139°47'510.0
2017-Oct-14 07:01N 35°15' E 139°45'4 8.4
2017-Oct-14 06:30N 35°17' E 139°41'0 0.2
2017-Oct-14 05:50N 35°17' E 139°41'0 0.0
2017-Oct-14 05:30N 35°17' E 139°41'0 0.0
2017-Oct-14 05:00N 35°17' E 139°41'0 0.0
2017-Oct-14 04:29N 35°17' E 139°41'0 0.0
2017-Oct-14 04:00N 35°17' E 139°41'0 0.0
2017-Oct-14 03:28N 35°17' E 139°41'0 1.0
2017-Oct-14 03:01N 35°17' E 139°41'510.8
2017-Oct-14 02:30N 35°22' E 139°44'2 3.9
2017-Oct-14 02:00N 35°23' E 139°46'612.0
2017-Oct-14 01:30N 35°17' E 139°45'711.1
2017-Oct-14 00:50N 35°10' E 139°46'4 8.4
2017-Oct-14 00:23N 35°14' E 139°46'511.3
2017-Oct-13 23:58N 35°18' E 139°43'2 3.5
2017-Oct-13 23:29N 35°17' E 139°41'0 0.0
2017-Oct-13 23:00N 35°17' E 139°41'0 0.0
2017-Oct-13 22:30N 35°17' E 139°41'0 0.0
2017-Oct-13 21:56N 35°17' E 139°41'0 0.0
2017-Oct-13 21:29N 35°17' E 139°41'0 0.0
2017-Oct-13 21:00N 35°17' E 139°41'0 0.0
2017-Oct-13 20:30N 35°17' E 139°41'0 0.0
2017-Oct-13 19:59N 35°17' E 139°41'0 0.0
2017-Oct-13 19:30N 35°17' E 139°41'0 0.0
2017-Oct-13 19:00N 35°17' E 139°41'0 0.0
2017-Oct-13 18:30N 35°17' E 139°41'0 0.0
2017-Oct-13 18:00N 35°17' E 139°41'0 0.0
2017-Oct-13 17:30N 35°17' E 139°41'0 0.0
2017-Oct-13 17:00N 35°17' E 139°41'0 0.0
2017-Oct-13 16:30N 35°17' E 139°41'0 0.0
2017-Oct-13 16:00N 35°17' E 139°41'0 0.0
2017-Oct-13 15:30N 35°17' E 139°41'0 0.0
2017-Oct-13 15:00N 35°17' E 139°41'0 0.0
2017-Oct-13 14:30N 35°17' E 139°41'0 0.0
2017-Oct-13 14:00N 35°17' E 139°41'0 0.0
2017-Oct-13 13:30N 35°17' E 139°41'0 0.0
2017-Oct-13 13:00N 35°17' E 139°41'0 0.0
2017-Oct-13 12:30N 35°17' E 139°41'0 0.0
2017-Oct-13 12:00N 35°17' E 139°41'0 0.0
2017-Oct-13 11:30N 35°17' E 139°41'0 0.0
2017-Oct-13 11:00N 35°17' E 139°41'0 0.0
2017-Oct-13 10:30N 35°17' E 139°41'0 0.0
2017-Oct-13 10:00N 35°17' E 139°41'0 0.0
2017-Oct-13 09:29N 35°17' E 139°41'0 0.0
2017-Oct-13 09:00N 35°17' E 139°41'0 0.0
2017-Oct-13 08:30N 35°17' E 139°41'0 0.0
2017-Oct-13 08:00N 35°17' E 139°41'0 0.0
2017-Oct-13 07:29N 35°17' E 139°41'0 0.0
2017-Oct-13 07:00N 35°17' E 139°41'0 0.0
2017-Oct-13 06:30N 35°17' E 139°41'0 0.0
2017-Oct-13 06:00N 35°17' E 139°41'0 0.0
2017-Oct-13 05:29N 35°17' E 139°41'0 0.0
2017-Oct-13 05:00N 35°17' E 139°41'0 0.0
2017-Oct-13 04:30N 35°17' E 139°41'0 0.0
2017-Oct-13 03:59N 35°17' E 139°41'0 0.0
2017-Oct-13 03:29N 35°17' E 139°41'0 0.0
2017-Oct-13 02:46N 35°17' E 139°41'0 0.0
2017-Oct-13 02:12N 35°17' E 139°41'0 0.0
2017-Oct-13 01:56N 35°17' E 139°41'0 0.0
2017-Oct-13 01:29N 35°17' E 139°41'0 0.0
2017-Oct-13 01:00N 35°17' E 139°41'0 0.0
2017-Oct-13 00:29N 35°17' E 139°41'0 0.0
2017-Oct-12 23:59N 35°17' E 139°41'3 6.9
2017-Oct-12 23:30N 35°16' E 139°44'3 6.5
2017-Oct-12 23:00N 35°13' E 139°43'3 5.4
2017-Oct-12 22:30N 35°15' E 139°46'612.7
2017-Oct-12 22:00N 35°20' E 139°42'612.4
2017-Oct-12 21:31N 35°26' E 139°44'1 2.0
2017-Oct-12 21:00N 35°27' E 139°43'2 3.3
2017-Oct-12 20:30N 35°25' E 139°42'510.6
2017-Oct-12 20:00N 35°20' E 139°42'3 5.9
2017-Oct-12 19:30N 35°17' E 139°41'0 0.0
2017-Oct-12 19:00N 35°17' E 139°41'0 0.0
2017-Oct-12 18:29N 35°17' E 139°41'0 0.0
2017-Oct-12 18:00N 35°17' E 139°41'0 0.0
2017-Oct-12 17:30N 35°17' E 139°41'0 0.0
2017-Oct-12 17:00N 35°17' E 139°41'0 0.0
2017-Oct-12 16:30N 35°17' E 139°41'0 0.0
2017-Oct-12 16:00N 35°17' E 139°41'0 0.0
2017-Oct-12 15:30N 35°17' E 139°41'0 0.0
2017-Oct-12 15:00N 35°17' E 139°41'0 0.0
2017-Oct-12 14:30N 35°17' E 139°41'0 0.0
2017-Oct-12 14:00N 35°17' E 139°41'1 2.4
2017-Oct-12 13:30N 35°18' E 139°42'5 9.4
2017-Oct-12 13:00N 35°14' E 139°45'2 3.2
2017-Oct-12 12:30N 35°15' E 139°46'612.6
2017-Oct-12 12:00N 35°21' E 139°42'2 4.3
2017-Oct-12 11:30N 35°19' E 139°42'2 3.9
2017-Oct-12 11:00N 35°17' E 139°41'0 0.0
2017-Oct-12 10:29N 35°17' E 139°41'0 0.0
2017-Oct-12 09:59N 35°17' E 139°41'1 2.5
2017-Oct-12 09:30N 35°18' E 139°42'4 8.7
2017-Oct-12 09:00N 35°14' E 139°45'1 1.8
2017-Oct-12 08:30N 35°15' E 139°46'5 9.7
2017-Oct-12 08:00N 35°19' E 139°43'5 9.3
2017-Oct-12 07:30N 35°24' E 139°42'5 9.1
2017-Oct-12 07:00N 35°27' E 139°46'2 4.2
2017-Oct-12 06:30N 35°29' E 139°47'0 0.2
2017-Oct-12 06:00N 35°29' E 139°47'0 0.2
2017-Oct-12 05:30N 35°29' E 139°47'1 2.8
2017-Oct-12 05:00N 35°28' E 139°46'5 9.4
2017-Oct-12 04:30N 35°24' E 139°44'611.1
2017-Oct-12 04:00N 35°18' E 139°42'1 2.8
2017-Oct-12 03:29N 35°17' E 139°41'0 0.0
2017-Oct-12 02:57N 35°17' E 139°41'0 0.0
2017-Oct-12 02:30N 35°17' E 139°41'0 0.0
2017-Oct-12 02:00N 35°17' E 139°41'9 0.3
2017-Oct-10 21:30N 35°24' E 139°49'611.3
2017-Oct-10 21:00N 35°20' E 139°44'4 0.5
2017-Oct-10 13:52N 35°17' E 139°41'0 0.0
2017-Oct-10 13:29N 35°17' E 139°41'0 0.1
2017-Oct-10 11:22N 35°17' E 139°41'4 9.3
2017-Oct-10 10:59N 35°16' E 139°45'4 7.8
2017-Oct-10 10:30N 35°13' E 139°46'612.4
2017-Oct-10 10:01N 35°18' E 139°44'8 7.4
2017-Oct-10 08:57N 35°26' E 139°42'  

Dump ship's entire track history